createdAt,value
2023-02-11T00:01:37.083Z,102362.53
2023-02-11T00:04:10.750Z,102373.06
2023-02-11T00:06:44.431Z,102366.25
2023-02-11T00:09:17.985Z,102361.06
2023-02-11T00:11:51.795Z,102377.00
2023-02-11T00:14:27.331Z,102364.41
2023-02-11T00:17:01.640Z,102363.16
2023-02-11T00:19:35.219Z,102367.69
2023-02-11T00:22:09.066Z,102363.91
2023-02-11T00:24:42.738Z,102355.84
2023-02-11T00:27:16.529Z,102369.97
2023-02-11T00:29:51.429Z,102363.13
2023-02-11T00:32:25.358Z,102364.66
2023-02-11T00:34:58.927Z,102376.09
2023-02-11T00:37:36.393Z,102379.41
2023-02-11T00:40:10.935Z,102375.00
2023-02-11T00:42:44.816Z,102383.31
2023-02-11T00:45:21.287Z,102366.13
2023-02-11T00:47:55.148Z,102369.00
2023-02-11T00:50:28.766Z,102371.88
2023-02-11T00:53:02.589Z,102374.47
2023-02-11T00:55:36.210Z,102360.31
2023-02-11T00:58:09.922Z,102344.97
2023-02-11T01:00:45.054Z,102336.28
2023-02-11T01:03:18.825Z,102338.22
2023-02-11T01:05:53.457Z,102333.44
2023-02-11T01:08:27.808Z,102331.63
2023-02-11T01:11:03.560Z,102340.28
2023-02-11T01:13:38.144Z,102343.63
2023-02-11T01:16:16.240Z,102338.47
2023-02-11T01:18:50.516Z,102342.97
2023-02-11T01:21:24.174Z,102330.66
2023-02-11T01:23:58.021Z,102325.03
2023-02-11T01:26:31.643Z,102322.91
2023-02-11T01:29:05.340Z,102315.34
2023-02-11T01:31:40.399Z,102322.50
2023-02-11T01:34:15.188Z,102320.69
2023-02-11T01:36:48.997Z,102311.13
2023-02-11T01:39:22.904Z,102326.19
2023-02-11T01:41:56.645Z,102322.50
2023-02-11T01:44:32.378Z,102318.09
2023-02-11T01:47:07.900Z,102315.16
2023-02-11T01:49:45.611Z,102308.31
2023-02-11T01:52:22.895Z,102307.16
2023-02-11T01:55:18.106Z,102298.63
2023-02-11T01:57:56.364Z,102290.25
2023-02-11T02:00:35.658Z,102284.63
2023-02-11T02:03:15.554Z,102284.63
2023-02-11T02:05:54.879Z,102286.63
2023-02-11T02:08:35.097Z,102299.69
2023-02-11T02:11:09.430Z,102285.25
2023-02-11T02:13:43.132Z,102286.91
2023-02-11T02:16:20.512Z,102295.75
2023-02-11T02:19:04.256Z,102286.91
2023-02-11T02:21:59.259Z,102278.41
2023-02-11T02:24:57.719Z,102287.69
2023-02-11T02:27:43.398Z,102275.03
2023-02-11T02:31:06.506Z,102280.97
2023-02-11T02:33:54.264Z,102268.34
2023-02-11T02:36:35.665Z,102251.94
2023-02-11T02:39:13.641Z,102254.22
2023-02-11T02:41:49.692Z,102260.00
2023-02-11T02:44:24.185Z,102264.44
2023-02-11T02:46:58.458Z,102260.94
2023-02-11T02:49:33.932Z,102253.16
2023-02-11T02:52:27.763Z,102263.38
2023-02-11T02:55:13.925Z,102263.97
2023-02-11T02:58:11.700Z,102264.59
2023-02-11T03:00:50.779Z,102255.91
2023-02-11T03:03:27.791Z,102261.69
2023-02-11T03:06:09.882Z,102268.88
2023-02-11T03:08:47.962Z,102262.00
2023-02-11T03:11:23.058Z,102263.06
2023-02-11T03:13:58.240Z,102261.38
2023-02-11T03:16:36.048Z,102264.44
2023-02-11T03:19:14.241Z,102257.44
2023-02-11T03:21:52.809Z,102260.94
2023-02-11T03:24:30.701Z,102241.44
2023-02-11T03:27:10.407Z,102249.06
2023-02-11T03:29:51.578Z,102249.06
2023-02-11T03:32:30.371Z,102244.50
2023-02-11T03:35:10.162Z,102244.19
2023-02-11T03:37:52.533Z,102237.78
2023-02-11T03:40:29.608Z,102233.69
2023-02-11T03:43:11.481Z,102224.84
2023-02-11T03:45:47.152Z,102225.78
2023-02-11T03:48:24.763Z,102226.06
2023-02-11T03:51:00.978Z,102214.19
2023-02-11T03:53:37.524Z,102224.41
2023-02-11T03:56:15.780Z,102210.84
2023-02-11T03:58:49.930Z,102207.81
2023-02-11T04:01:23.895Z,102198.81
2023-02-11T04:03:57.887Z,102210.50
2023-02-11T04:06:31.505Z,102209.59
2023-02-11T04:09:06.926Z,102218.47
2023-02-11T04:11:40.560Z,102220.75
2023-02-11T04:14:14.305Z,102234.16
2023-02-11T04:16:47.986Z,102227.88
2023-02-11T04:19:21.871Z,102227.56
2023-02-11T04:21:55.499Z,102229.69
2023-02-11T04:24:30.600Z,102234.88
2023-02-11T04:27:04.504Z,102235.78
2023-02-11T04:29:38.514Z,102230.75
2023-02-11T04:32:12.578Z,102231.50
2023-02-11T04:34:46.397Z,102231.66
2023-02-11T04:37:20.038Z,102239.25
2023-02-11T04:39:55.401Z,102241.53
2023-02-11T04:42:29.372Z,102236.34
2023-02-11T04:45:03.235Z,102227.50
2023-02-11T04:47:37.932Z,102238.19
2023-02-11T04:50:11.869Z,102230.84
2023-02-11T04:52:45.569Z,102230.38
2023-02-11T04:55:20.713Z,102229.19
2023-02-11T04:57:55.288Z,102234.50
2023-02-11T05:00:29.160Z,102238.00
2023-02-11T05:03:02.881Z,102234.34
2023-02-11T05:05:39.698Z,102241.22
2023-02-11T05:08:13.408Z,102244.72
2023-02-11T05:10:49.055Z,102248.50
2023-02-11T05:13:22.803Z,102241.94
2023-02-11T05:15:56.864Z,102246.84
2023-02-11T05:18:30.408Z,102255.38
2023-02-11T05:21:07.580Z,102242.28
2023-02-11T05:23:41.783Z,102240.31
2023-02-11T05:26:16.939Z,102238.34
2023-02-11T05:28:50.633Z,102232.06
2023-02-11T05:31:24.555Z,102232.25
2023-02-11T05:33:58.081Z,102222.94
2023-02-11T05:36:33.448Z,102231.34
2023-02-11T05:39:07.500Z,102224.91
2023-02-11T05:41:42.796Z,102215.94
2023-02-11T05:44:16.420Z,102219.09
2023-02-11T05:46:50.330Z,102211.81
2023-02-11T05:49:24.117Z,102195.34
2023-02-11T05:51:57.968Z,102191.84
2023-02-11T05:54:31.570Z,102206.91
2023-02-11T05:57:06.834Z,102207.25
2023-02-11T05:59:40.924Z,102214.41
2023-02-11T06:02:14.682Z,102218.66
2023-02-11T06:04:48.248Z,102220.19
2023-02-11T06:07:22.001Z,102209.97
2023-02-11T06:09:55.658Z,102212.56
2023-02-11T06:12:30.772Z,102208.88
2023-02-11T06:15:05.298Z,102206.72
2023-02-11T06:17:39.408Z,102189.22
2023-02-11T06:20:13.683Z,102178.56
2023-02-11T06:22:48.164Z,102187.19
2023-02-11T06:25:21.909Z,102200.28
2023-02-11T06:27:57.054Z,102208.06
2023-02-11T06:30:30.638Z,102209.75
2023-02-11T06:33:04.528Z,102232.00
2023-02-11T06:35:39.511Z,102235.53
2023-02-11T06:38:13.390Z,102235.38
2023-02-11T06:40:51.411Z,102232.00
2023-02-11T06:43:26.484Z,102239.16
2023-02-11T06:46:00.144Z,102250.28
2023-02-11T06:48:34.052Z,102244.78
2023-02-11T06:51:09.774Z,102237.78
2023-02-11T06:53:46.127Z,102238.81
2023-02-11T06:56:21.678Z,102240.03
2023-02-11T06:58:57.376Z,102258.59
2023-02-11T07:01:30.969Z,102260.94
2023-02-11T07:04:04.809Z,102257.59
2023-02-11T07:06:38.578Z,102256.69
2023-02-11T07:09:12.419Z,102260.03
2023-02-11T07:11:45.937Z,102272.38
2023-02-11T07:14:21.172Z,102267.97
2023-02-11T07:16:54.720Z,102267.97
2023-02-11T07:19:28.579Z,102260.47
2023-02-11T07:22:02.110Z,102266.28
2023-02-11T07:24:35.913Z,102267.63
2023-02-11T07:27:09.478Z,102264.88
2023-02-11T07:29:45.950Z,102260.28
2023-02-11T07:32:19.572Z,102268.19
2023-02-11T07:34:53.515Z,102270.22
2023-02-11T07:37:27.255Z,102266.66
2023-02-11T07:40:01.209Z,102261.19
2023-02-11T07:42:35.691Z,102260.28
2023-02-11T07:45:11.183Z,102277.16
2023-02-11T07:47:45.752Z,102276.81
2023-02-11T07:50:25.723Z,102306.81
2023-02-11T07:52:59.229Z,102301.06
2023-02-11T07:55:34.260Z,102314.81
2023-02-11T07:58:07.849Z,102312.34
2023-02-11T08:00:42.987Z,102316.63
2023-02-11T08:03:16.608Z,102317.25
2023-02-11T08:05:50.619Z,102309.78
2023-02-11T08:08:24.365Z,102315.72
2023-02-11T08:10:58.070Z,102311.16
2023-02-11T08:13:31.667Z,102313.75
2023-02-11T08:16:07.875Z,102316.78
2023-02-11T08:18:41.571Z,102316.00
2023-02-11T08:21:15.374Z,102313.13
2023-02-11T08:23:49.694Z,102321.47
2023-02-11T08:26:26.596Z,102326.38
2023-02-11T08:29:00.476Z,102332.44
2023-02-11T08:31:37.879Z,102333.88
2023-02-11T08:34:14.101Z,102340.25
2023-02-11T08:36:48.719Z,102347.28
2023-02-11T08:39:23.502Z,102351.41
2023-02-11T08:41:57.935Z,102353.81
2023-02-11T08:44:31.512Z,102363.94
2023-02-11T08:47:06.605Z,102360.88
2023-02-11T08:49:42.316Z,102361.59
2023-02-11T08:52:16.195Z,102365.84
2023-02-11T08:54:50.868Z,102364.03
2023-02-11T08:57:24.738Z,102365.56
2023-02-11T08:59:58.424Z,102361.44
2023-02-11T09:02:33.609Z,102361.28
2023-02-11T09:05:08.394Z,102369.41
2023-02-11T09:07:42.214Z,102370.47
2023-02-11T09:10:15.927Z,102371.22
2023-02-11T09:12:49.679Z,102366.78
2023-02-11T09:15:23.283Z,102351.97
2023-02-11T09:17:58.507Z,102355.00
2023-02-11T09:20:32.224Z,102357.75
2023-02-11T09:23:06.078Z,102355.00
2023-02-11T09:25:41.052Z,102364.75
2023-02-11T09:28:14.898Z,102383.69
2023-02-11T09:30:48.650Z,102386.88
2023-02-11T09:33:23.815Z,102389.16
2023-02-11T09:35:57.456Z,102391.41
2023-02-11T09:38:32.608Z,102395.25
2023-02-11T09:41:08.571Z,102384.25
2023-02-11T09:43:47.595Z,102375.22
2023-02-11T09:46:22.564Z,102383.41
2023-02-11T09:48:58.161Z,102387.88
2023-02-11T09:51:41.851Z,102381.78
2023-02-11T09:54:22.046Z,102381.28
2023-02-11T09:56:55.524Z,102383.09
2023-02-11T09:59:29.397Z,102394.97
2023-02-11T10:02:10.781Z,102397.66
2023-02-11T10:05:06.771Z,102379.84
2023-02-11T10:07:49.353Z,102391.13
2023-02-11T10:10:37.514Z,102398.47
2023-02-11T10:13:29.714Z,102418.66
2023-02-11T10:16:15.828Z,102420.28
2023-02-11T10:19:31.593Z,102414.38
2023-02-11T10:25:21.977Z,102412.19
2023-02-11T10:28:00.850Z,102424.25
2023-02-11T10:30:38.565Z,102423.78
2023-02-11T10:33:21.280Z,102431.44
2023-02-11T10:35:55.364Z,102425.94
2023-02-11T10:38:29.521Z,102444.28
2023-02-11T10:41:04.853Z,102423.38
2023-02-11T10:43:42.576Z,102409.63
2023-02-11T10:46:21.506Z,102413.59
2023-02-11T10:48:55.571Z,102396.63
2023-02-11T10:51:31.561Z,102404.81
2023-02-11T10:54:21.235Z,102409.59
2023-02-11T10:57:00.951Z,102411.13
2023-02-11T10:59:40.294Z,102413.75
2023-02-11T11:02:24.601Z,102397.53
2023-02-11T11:04:59.948Z,102401.47
2023-02-11T11:07:35.290Z,102397.75
2023-02-11T11:10:27.991Z,102389.94
2023-02-11T11:13:02.852Z,102385.09
2023-02-11T11:15:36.773Z,102399.44
2023-02-11T11:18:22.177Z,102404.00
2023-02-11T11:21:00.837Z,102411.63
2023-02-11T11:23:36.865Z,102416.97
2023-02-11T11:26:13.466Z,102430.81
2023-02-11T11:29:02.501Z,102426.44
2023-02-11T11:31:48.410Z,102423.25
2023-02-11T11:34:28.019Z,102416.81
2023-02-11T11:37:11.455Z,102414.69
2023-02-11T11:39:55.428Z,102412.16
2023-02-11T11:42:31.472Z,102419.63
2023-02-11T11:45:26.552Z,102414.69
2023-02-11T11:48:06.996Z,102428.94
2023-02-11T11:50:44.430Z,102441.94
2023-02-11T11:53:24.630Z,102447.75
2023-02-11T11:56:02.667Z,102452.63
2023-02-11T11:58:36.672Z,102447.56
2023-02-11T12:01:25.085Z,102446.50
2023-02-11T12:04:20.502Z,102445.41
2023-02-11T12:07:06.306Z,102446.19
2023-02-11T12:09:51.935Z,102452.72
2023-02-11T12:12:40.182Z,102452.03
2023-02-11T12:15:29.557Z,102456.00
2023-02-11T12:18:18.746Z,102463.31
2023-02-11T12:21:16.401Z,102465.94
2023-02-11T12:24:07.143Z,102459.50
2023-02-11T12:26:46.041Z,102456.00
2023-02-11T12:29:29.892Z,102460.75
2023-02-11T12:32:14.851Z,102464.69
2023-02-11T12:35:10.419Z,102457.66
2023-02-11T12:37:55.050Z,102464.91
2023-02-11T12:40:46.224Z,102467.78
2023-02-11T12:43:24.905Z,102464.69
2023-02-11T12:46:09.382Z,102460.13
2023-02-11T12:49:02.049Z,102464.13
2023-02-11T12:51:56.492Z,102455.34
2023-02-11T12:54:36.181Z,102456.72
2023-02-11T12:57:19.279Z,102456.44
2023-02-11T13:00:00.772Z,102451.38
2023-02-11T13:02:43.359Z,102446.50
2023-02-11T13:05:25.999Z,102449.56
2023-02-11T13:08:06.512Z,102452.16
2023-02-11T13:10:44.231Z,102455.22
2023-02-11T13:13:22.392Z,102449.72
2023-02-11T13:16:00.687Z,102458.56
2023-02-11T13:18:50.486Z,102455.34
2023-02-11T13:21:37.306Z,102455.34
2023-02-11T13:24:20.779Z,102448.78
2023-02-11T13:27:02.096Z,102445.16
2023-02-11T13:29:49.138Z,102442.91
2023-02-11T13:32:23.340Z,102446.09
2023-02-11T13:34:59.585Z,102458.66
2023-02-11T13:37:37.504Z,102454.94
2023-02-11T13:40:24.115Z,102463.06
2023-02-11T13:43:00.141Z,102468.97
2023-02-11T13:45:39.716Z,102460.41
2023-02-11T13:48:19.276Z,102450.94
2023-02-11T13:50:56.446Z,102459.22
2023-02-11T13:53:31.004Z,102465.53
2023-02-11T13:56:11.290Z,102464.69
2023-02-11T13:58:49.513Z,102466.66
2023-02-11T14:02:16.193Z,102467.44
2023-02-11T14:05:31.649Z,102472.97
2023-02-11T14:08:43.248Z,102475.72
2023-02-11T14:11:46.674Z,102480.13
2023-02-11T14:14:23.873Z,102486.38
2023-02-11T14:17:31.824Z,102499.25
2023-02-11T14:20:26.309Z,102505.63
2023-02-11T14:23:00.456Z,102503.53
2023-02-11T14:25:34.364Z,102509.00
2023-02-11T14:28:21.997Z,102513.19
2023-02-11T14:31:05.814Z,102521.75
2023-02-11T14:34:01.735Z,102532.50
2023-02-11T14:36:56.636Z,102534.19
2023-02-11T14:39:45.566Z,102543.50
2023-02-11T14:42:22.700Z,102549.75
2023-02-11T14:45:00.405Z,102544.88
2023-02-11T14:47:41.419Z,102539.53
2023-02-11T14:50:19.648Z,102550.19
2023-02-11T14:52:54.352Z,102557.84
2023-02-11T14:55:33.084Z,102565.34
2023-02-11T14:58:16.295Z,102579.88
2023-02-11T15:00:54.655Z,102586.66
2023-02-11T15:03:35.240Z,102595.63
2023-02-11T15:06:18.423Z,102595.78
2023-02-11T15:08:54.585Z,102600.97
2023-02-11T15:11:30.922Z,102606.78
2023-02-11T15:14:10.145Z,102610.44
2023-02-11T15:16:46.565Z,102611.53
2023-02-11T15:19:25.794Z,102606.34
2023-02-11T15:22:00.444Z,102594.75
2023-02-11T15:24:35.895Z,102594.75
2023-02-11T15:27:15.430Z,102597.00
2023-02-11T15:29:50.981Z,102593.66
2023-02-11T15:32:27.985Z,102598.41
2023-02-11T15:35:02.399Z,102603.75
2023-02-11T15:37:36.369Z,102601.47
2023-02-11T15:40:12.705Z,102604.03
2023-02-11T15:42:58.105Z,102600.41
2023-02-11T15:45:34.124Z,102598.72
2023-02-11T15:48:14.116Z,102596.75
2023-02-11T15:50:53.758Z,102599.16
2023-02-11T15:53:32.416Z,102598.75
2023-02-11T15:56:15.835Z,102610.47
2023-02-11T15:58:50.660Z,102623.31
2023-02-11T16:01:33.583Z,102617.50
2023-02-11T16:04:17.928Z,102624.53
2023-02-11T16:06:51.815Z,102626.81
2023-02-11T16:09:34.428Z,102629.88
2023-02-11T16:12:27.096Z,102627.41
2023-02-11T16:15:20.968Z,102640.22
2023-02-11T16:17:54.664Z,102629.09
2023-02-11T16:20:29.965Z,102641.75
2023-02-11T16:23:44.092Z,102638.84
2023-02-11T16:26:25.891Z,102657.00
2023-02-11T16:29:12.390Z,102654.72
2023-02-11T16:31:48.760Z,102661.28
2023-02-11T16:34:24.416Z,102670.59
2023-02-11T16:36:59.812Z,102672.88
2023-02-11T16:39:34.089Z,102668.16
2023-02-11T16:42:08.182Z,102677.31
2023-02-11T16:44:41.904Z,102684.03
2023-02-11T16:47:23.288Z,102683.41
2023-02-11T16:49:57.491Z,102682.19
2023-02-11T16:52:33.028Z,102697.31
2023-02-11T16:55:08.803Z,102701.88
2023-02-11T16:57:43.029Z,102713.75
2023-02-11T17:00:18.034Z,102709.66
2023-02-11T17:02:51.985Z,102713.63
2023-02-11T17:05:26.880Z,102707.38
2023-02-11T17:08:03.650Z,102706.75
2023-02-11T17:10:37.808Z,102707.38
2023-02-11T17:13:12.152Z,102721.09
2023-02-11T17:16:10.469Z,102719.28
